createdAt,value
2022-07-26T00:01:18.350Z,95291.75
2022-07-26T00:03:47.019Z,95294.75
2022-07-26T00:06:15.200Z,95290.00
2022-07-26T00:08:43.254Z,95290.31
2022-07-26T00:11:11.423Z,95293.00
2022-07-26T00:13:41.077Z,95289.06
2022-07-26T00:16:09.132Z,95280.78
2022-07-26T00:18:37.241Z,95284.81
2022-07-26T00:21:05.634Z,95287.56
2022-07-26T00:23:35.029Z,95296.25
2022-07-26T00:26:03.314Z,95297.56
2022-07-26T00:28:31.405Z,95298.63
2022-07-26T00:31:00.925Z,95305.53
2022-07-26T00:33:28.984Z,95292.16
2022-07-26T00:35:57.023Z,95299.03
2022-07-26T00:38:25.207Z,95299.72
2022-07-26T00:40:53.226Z,95309.16
2022-07-26T00:43:21.365Z,95303.00
2022-07-26T00:45:50.669Z,95298.75
2022-07-26T00:48:20.088Z,95296.94
2022-07-26T00:50:48.314Z,95304.66
2022-07-26T00:53:16.639Z,95304.47
2022-07-26T00:55:44.614Z,95316.59
2022-07-26T00:58:13.655Z,95303.16
2022-07-26T01:00:41.731Z,95306.47
2022-07-26T01:03:09.995Z,95308.88
2022-07-26T01:05:39.469Z,95302.97
2022-07-26T01:08:07.575Z,95311.44
2022-07-26T01:10:35.597Z,95306.09
2022-07-26T01:13:03.621Z,95307.59
2022-07-26T01:15:31.630Z,95303.97
2022-07-26T01:17:59.590Z,95304.59
2022-07-26T01:20:27.594Z,95300.06
2022-07-26T01:22:56.976Z,95305.63
2022-07-26T01:25:32.516Z,95303.88
2022-07-26T01:28:11.776Z,95300.41
2022-07-26T01:30:48.714Z,95292.19
2022-07-26T01:33:17.071Z,95299.63
2022-07-26T01:35:45.362Z,95302.75
2022-07-26T01:38:15.012Z,95300.81
2022-07-26T01:40:43.015Z,95298.72
2022-07-26T01:43:11.002Z,95294.06
2022-07-26T01:45:39.127Z,95295.66
2022-07-26T01:48:08.552Z,95288.97
2022-07-26T01:50:37.146Z,95284.19
2022-07-26T01:53:06.208Z,95290.44
2022-07-26T01:55:36.092Z,95286.88
2022-07-26T01:58:05.091Z,95286.59
2022-07-26T02:00:33.983Z,95294.13
2022-07-26T02:03:02.609Z,95286.50
2022-07-26T02:05:31.024Z,95288.09
2022-07-26T02:07:59.325Z,95286.50
2022-07-26T02:10:49.662Z,95285.91
2022-07-26T02:13:19.414Z,95289.25
2022-07-26T02:15:47.633Z,95279.81
2022-07-26T02:18:15.663Z,95282.97
2022-07-26T02:20:43.780Z,95288.53
2022-07-26T02:23:11.919Z,95277.88
2022-07-26T02:25:40.075Z,95286.69
2022-07-26T02:28:08.119Z,95283.03
2022-07-26T02:30:38.314Z,95272.25
2022-07-26T02:33:07.583Z,95284.69
2022-07-26T02:35:35.683Z,95285.38
2022-07-26T02:38:04.204Z,95279.44
2022-07-26T02:40:32.332Z,95279.81
2022-07-26T02:43:00.504Z,95279.63
2022-07-26T02:45:28.681Z,95282.81
2022-07-26T02:47:58.223Z,95270.81
2022-07-26T02:50:27.781Z,95277.13
2022-07-26T02:52:56.673Z,95268.66
2022-07-26T02:55:26.622Z,95276.72
2022-07-26T02:57:55.185Z,95264.50
2022-07-26T03:00:25.444Z,95267.28
2022-07-26T03:02:53.987Z,95268.06
2022-07-26T03:05:23.763Z,95264.41
2022-07-26T03:07:51.769Z,95262.84
2022-07-26T03:10:20.060Z,95264.91
2022-07-26T03:12:48.065Z,95264.31
2022-07-26T03:15:16.165Z,95262.94
2022-07-26T03:17:44.200Z,95257.41
2022-07-26T03:20:13.621Z,95259.56
2022-07-26T03:22:43.409Z,95256.81
2022-07-26T03:25:11.513Z,95256.59
2022-07-26T03:27:39.779Z,95260.56
2022-07-26T03:30:08.833Z,95258.19
2022-07-26T03:32:36.929Z,95261.16
2022-07-26T03:35:05.414Z,95262.13
2022-07-26T03:37:45.998Z,95260.94
2022-07-26T03:40:17.261Z,95259.19
2022-07-26T03:42:46.018Z,95266.28
2022-07-26T03:45:14.630Z,95264.09
2022-07-26T03:47:42.779Z,95263.72
2022-07-26T03:50:13.652Z,95264.09
2022-07-26T03:52:42.197Z,95259.56
2022-07-26T03:55:28.782Z,95261.56
2022-07-26T03:57:58.181Z,95264.31
2022-07-26T04:00:26.635Z,95266.97
2022-07-26T04:02:54.778Z,95253.41
2022-07-26T04:05:23.597Z,95259.16
2022-07-26T04:07:52.974Z,95257.38
2022-07-26T04:10:22.087Z,95260.69
2022-07-26T04:12:50.181Z,95254.03
2022-07-26T04:15:21.313Z,95255.91
2022-07-26T04:17:49.499Z,95246.56
2022-07-26T04:20:17.659Z,95249.72
2022-07-26T04:22:46.063Z,95247.75
2022-07-26T04:25:14.591Z,95249.00
2022-07-26T04:27:42.576Z,95242.09
2022-07-26T04:30:15.189Z,95248.69
2022-07-26T04:32:46.883Z,95246.34
2022-07-26T04:35:16.309Z,95241.19
2022-07-26T04:37:45.071Z,95242.38
2022-07-26T04:40:17.415Z,95246.41
2022-07-26T04:42:50.106Z,95234.19
2022-07-26T04:45:18.534Z,95237.16
2022-07-26T04:47:50.448Z,95228.34
2022-07-26T04:50:19.343Z,95229.22
2022-07-26T04:52:47.316Z,95234.06
2022-07-26T04:55:15.538Z,95226.38
2022-07-26T04:57:44.531Z,95240.78
2022-07-26T05:00:22.029Z,95237.84
2022-07-26T05:02:53.778Z,95231.34
2022-07-26T05:05:22.588Z,95233.75
2022-07-26T05:07:54.753Z,95233.06
2022-07-26T05:10:24.227Z,95239.06
2022-07-26T05:12:52.240Z,95233.34
2022-07-26T05:15:20.685Z,95239.66
2022-07-26T05:17:48.834Z,95239.06
2022-07-26T05:20:18.515Z,95239.06
2022-07-26T05:22:47.092Z,95241.22
2022-07-26T05:25:15.214Z,95232.44
2022-07-26T05:27:43.274Z,95226.63
2022-07-26T05:30:12.020Z,95224.28
2022-07-26T05:32:40.118Z,95223.97
2022-07-26T05:35:09.547Z,95222.88
2022-07-26T05:37:39.209Z,95219.16
2022-07-26T05:40:08.529Z,95226.19
2022-07-26T05:42:36.577Z,95226.50
2022-07-26T05:45:05.361Z,95222.25
2022-07-26T05:47:33.502Z,95228.69
2022-07-26T05:50:01.693Z,95217.06
2022-07-26T05:52:29.687Z,95228.34
2022-07-26T05:54:59.164Z,95229.56
2022-07-26T05:57:27.201Z,95224.63
2022-07-26T05:59:55.207Z,95232.41
2022-07-26T06:02:23.255Z,95228.97
2022-07-26T06:04:51.487Z,95227.22
2022-07-26T06:07:19.497Z,95241.38
2022-07-26T06:09:47.567Z,95241.59
2022-07-26T06:12:16.970Z,95230.19
2022-07-26T06:14:45.130Z,95227.03
2022-07-26T06:17:13.226Z,95231.16
2022-07-26T06:19:47.069Z,95232.84
2022-07-26T06:22:15.497Z,95235.31
2022-07-26T06:24:43.508Z,95231.38
2022-07-26T06:27:11.477Z,95229.78
2022-07-26T06:29:41.477Z,95226.03
2022-07-26T06:32:09.594Z,95228.56
2022-07-26T06:34:37.696Z,95220.47
2022-07-26T06:37:05.664Z,95230.69
2022-07-26T06:39:33.764Z,95228.19
2022-07-26T06:42:01.766Z,95227.09
2022-07-26T06:44:30.366Z,95225.88
2022-07-26T06:46:59.895Z,95230.00
2022-07-26T06:49:27.937Z,95232.56
2022-07-26T06:51:57.900Z,95230.84
2022-07-26T06:54:26.071Z,95228.03
2022-07-26T06:56:54.091Z,95229.31
2022-07-26T06:59:22.085Z,95223.94
2022-07-26T07:01:55.599Z,95225.88
2022-07-26T07:04:29.988Z,95232.91
2022-07-26T07:07:05.288Z,95221.56
2022-07-26T07:09:34.596Z,95221.78
2022-07-26T07:12:09.731Z,95216.88
2022-07-26T07:14:38.750Z,95221.44
2022-07-26T07:17:12.206Z,95217.00
2022-07-26T07:19:44.420Z,95217.06
2022-07-26T07:22:12.854Z,95214.97
2022-07-26T07:24:41.341Z,95211.22
2022-07-26T07:27:10.580Z,95211.22
2022-07-26T07:29:41.111Z,95211.34
2022-07-26T07:32:18.130Z,95202.59
2022-07-26T07:34:48.807Z,95202.53
2022-07-26T07:37:17.123Z,95198.81
2022-07-26T07:39:48.823Z,95199.59
2022-07-26T07:42:18.937Z,95201.34
2022-07-26T07:44:47.372Z,95204.84
2022-07-26T07:47:15.456Z,95200.78
2022-07-26T07:49:43.700Z,95198.56
2022-07-26T07:52:13.118Z,95193.31
2022-07-26T07:54:41.129Z,95193.84
2022-07-26T07:57:10.728Z,95187.78
2022-07-26T07:59:39.204Z,95182.31
2022-07-26T08:02:09.326Z,95182.09
2022-07-26T08:04:37.421Z,95178.34
2022-07-26T08:07:05.477Z,95186.81
2022-07-26T08:09:34.927Z,95172.56
2022-07-26T08:12:03.312Z,95178.38
2022-07-26T08:14:31.489Z,95165.41
2022-07-26T08:16:59.749Z,95168.44
2022-07-26T08:19:41.950Z,95178.22
2022-07-26T08:22:10.709Z,95179.78
2022-07-26T08:24:40.623Z,95181.53
2022-07-26T08:27:08.906Z,95177.13
2022-07-26T08:29:36.978Z,95180.09
2022-07-26T08:32:05.423Z,95177.38
2022-07-26T08:34:33.678Z,95181.97
2022-07-26T08:37:16.584Z,95177.38
2022-07-26T08:39:46.897Z,95181.03
2022-07-26T08:42:16.232Z,95172.47
2022-07-26T08:44:45.961Z,95187.09
2022-07-26T08:47:14.746Z,95170.72
2022-07-26T08:49:43.400Z,95172.31
2022-07-26T08:52:13.156Z,95171.19
2022-07-26T08:54:44.306Z,95177.06
2022-07-26T08:57:14.364Z,95178.22
2022-07-26T08:59:42.963Z,95180.22
2022-07-26T09:02:13.274Z,95183.19
2022-07-26T09:04:44.653Z,95170.94
2022-07-26T09:07:15.608Z,95179.56
2022-07-26T09:09:59.482Z,95177.94
2022-07-26T09:12:30.951Z,95171.31
2022-07-26T09:14:59.996Z,95166.19
2022-07-26T09:17:40.756Z,95171.59
2022-07-26T09:20:11.876Z,95165.75
2022-07-26T09:22:56.388Z,95165.78
2022-07-26T09:25:25.656Z,95167.50
2022-07-26T09:27:55.646Z,95161.06
2022-07-26T09:30:23.739Z,95161.84
2022-07-26T09:33:04.355Z,95164.03
2022-07-26T09:35:52.186Z,95169.09
2022-07-26T09:38:21.132Z,95165.28
2022-07-26T09:40:50.985Z,95165.47
2022-07-26T09:43:23.837Z,95169.97
2022-07-26T09:46:04.952Z,95164.88
2022-07-26T09:48:59.266Z,95158.66
2022-07-26T09:51:37.606Z,95160.00
2022-07-26T09:54:06.854Z,95165.66
2022-07-26T09:56:46.077Z,95161.09
2022-07-26T09:59:17.646Z,95163.00
2022-07-26T10:01:46.205Z,95153.25
2022-07-26T10:04:15.370Z,95158.44
2022-07-26T10:06:44.574Z,95153.09
2022-07-26T10:09:13.868Z,95155.19
2022-07-26T10:11:44.609Z,95160.88
2022-07-26T10:14:40.221Z,95161.50
2022-07-26T10:17:51.002Z,95156.16
2022-07-26T10:20:45.594Z,95150.81
2022-07-26T10:23:49.116Z,95154.63
2022-07-26T10:26:45.442Z,95160.03
2022-07-26T10:29:31.315Z,95146.84
2022-07-26T10:32:20.709Z,95158.19
2022-07-26T10:34:49.087Z,95156.69
2022-07-26T10:37:28.162Z,95153.56
2022-07-26T10:40:17.656Z,95149.19
2022-07-26T10:42:46.734Z,95145.59
2022-07-26T10:45:20.703Z,95141.69
2022-07-26T10:48:24.561Z,95141.41
2022-07-26T10:50:54.918Z,95134.78
2022-07-26T10:53:25.857Z,95134.47
2022-07-26T10:55:55.301Z,95142.97
2022-07-26T10:58:24.653Z,95137.28
2022-07-26T11:00:57.571Z,95139.13
2022-07-26T11:03:27.005Z,95137.53
2022-07-26T11:05:55.029Z,95131.88
2022-07-26T11:08:31.479Z,95129.59
2022-07-26T11:10:59.507Z,95123.47
2022-07-26T11:13:28.932Z,95126.28
2022-07-26T11:16:01.614Z,95124.38
2022-07-26T11:18:32.768Z,95121.09
2022-07-26T11:21:10.856Z,95117.44
2022-07-26T11:23:40.568Z,95114.59
2022-07-26T11:26:14.923Z,95116.50
2022-07-26T11:28:53.584Z,95106.44
2022-07-26T11:31:49.578Z,95110.38
2022-07-26T11:34:19.937Z,95105.16
2022-07-26T11:36:49.015Z,95106.72
2022-07-26T11:39:22.278Z,95104.06
2022-07-26T11:41:52.266Z,95092.00
2022-07-26T11:44:22.673Z,95093.50
2022-07-26T11:46:52.140Z,95087.63
2022-07-26T11:49:41.568Z,95086.84
2022-07-26T11:52:12.136Z,95078.81
2022-07-26T11:54:46.310Z,95071.91
2022-07-26T11:57:14.371Z,95075.81
2022-07-26T11:59:42.645Z,95075.63
2022-07-26T12:02:10.893Z,95070.28
2022-07-26T12:04:41.839Z,95065.84
2022-07-26T12:07:11.498Z,95078.78
2022-07-26T12:09:41.364Z,95074.03
2022-07-26T12:12:11.651Z,95074.88
2022-07-26T12:14:41.033Z,95068.34
2022-07-26T12:17:14.449Z,95066.78
2022-07-26T12:19:44.779Z,95072.25
2022-07-26T12:22:16.343Z,95066.88
2022-07-26T12:24:47.670Z,95064.00
2022-07-26T12:27:19.599Z,95065.28
2022-07-26T12:29:49.468Z,95050.53
2022-07-26T12:32:19.741Z,95061.13
2022-07-26T12:35:01.371Z,95059.88
2022-07-26T12:37:39.947Z,95057.34
2022-07-26T12:40:11.230Z,95048.75
2022-07-26T12:42:41.165Z,95049.00
2022-07-26T12:45:11.542Z,95043.41
2022-07-26T12:47:41.910Z,95042.97
2022-07-26T12:50:13.345Z,95040.09
2022-07-26T12:52:42.196Z,95038.66
2022-07-26T12:55:14.280Z,95041.44
2022-07-26T12:57:47.812Z,95043.88
2022-07-26T13:00:17.673Z,95033.22
2022-07-26T13:02:46.563Z,95026.44
2022-07-26T13:05:16.565Z,95035.16
2022-07-26T13:07:44.872Z,95025.38
2022-07-26T13:10:32.405Z,95032.94
2022-07-26T13:13:01.411Z,95029.88
2022-07-26T13:15:37.387Z,95035.69
2022-07-26T13:18:07.676Z,95026.81
2022-07-26T13:20:38.221Z,95032.84
2022-07-26T13:23:06.387Z,95029.81
2022-07-26T13:25:38.699Z,95017.66
2022-07-26T13:28:08.576Z,95012.50
2022-07-26T13:30:37.821Z,95013.03
2022-07-26T13:33:05.921Z,95017.28
2022-07-26T13:35:33.925Z,95014.94
2022-07-26T13:38:03.302Z,95009.25
2022-07-26T13:40:32.096Z,95013.53
2022-07-26T13:43:00.575Z,95007.66
2022-07-26T13:45:29.628Z,94998.56
2022-07-26T13:47:59.244Z,94996.53
2022-07-26T13:50:27.534Z,94991.78
2022-07-26T13:52:56.334Z,95000.69
2022-07-26T13:55:26.361Z,94997.31
2022-07-26T13:57:56.726Z,95007.38
2022-07-26T14:00:26.816Z,94998.88
2022-07-26T14:02:55.404Z,94995.56
2022-07-26T14:05:23.525Z,94991.31
2022-07-26T14:07:51.784Z,94990.66
2022-07-26T14:10:20.820Z,94985.84
2022-07-26T14:12:51.056Z,95001.19
2022-07-26T14:15:22.758Z,94990.91
2022-07-26T14:17:51.879Z,94982.72
2022-07-26T14:20:20.191Z,94981.41
2022-07-26T14:22:49.237Z,94984.38
2022-07-26T14:25:17.196Z,94990.16
2022-07-26T14:27:45.222Z,94987.19
2022-07-26T14:30:15.636Z,94988.69
2022-07-26T14:32:43.737Z,94987.97
2022-07-26T14:35:11.899Z,94990.53
2022-07-26T14:37:42.484Z,94988.00
2022-07-26T14:40:14.279Z,94984.44
2022-07-26T14:42:43.299Z,94988.44
2022-07-26T14:45:12.217Z,94979.66
2022-07-26T14:47:41.759Z,94985.16
2022-07-26T14:50:11.556Z,94988.00
2022-07-26T14:52:40.814Z,94981.69
2022-07-26T14:55:09.974Z,94976.03
2022-07-26T14:57:39.224Z,94972.97
2022-07-26T15:00:10.333Z,94971.47
2022-07-26T15:02:41.714Z,94977.31
2022-07-26T15:05:10.996Z,94975.22
2022-07-26T15:07:39.083Z,94976.78
2022-07-26T15:10:08.537Z,94974.59
2022-07-26T15:12:36.538Z,94977.50
2022-07-26T15:15:05.587Z,94968.22
2022-07-26T15:17:33.577Z,94967.06
2022-07-26T15:20:03.322Z,94975.94
2022-07-26T15:22:31.347Z,94970.69
2022-07-26T15:24:59.419Z,94971.38
2022-07-26T15:27:27.403Z,94971.75
2022-07-26T15:29:59.495Z,94970.69
2022-07-26T15:32:31.424Z,94968.66
2022-07-26T15:34:59.398Z,94963.09
2022-07-26T15:37:29.036Z,94967.78
2022-07-26T15:39:57.060Z,94959.84
2022-07-26T15:42:25.107Z,94954.16
2022-07-26T15:44:53.187Z,94958.00
2022-07-26T15:47:43.853Z,94967.78
2022-07-26T15:50:12.380Z,94961.53
2022-07-26T15:52:44.514Z,94950.53
2022-07-26T15:55:13.281Z,94948.31
2022-07-26T15:57:41.408Z,94955.78
2022-07-26T16:00:12.074Z,94949.53
2022-07-26T16:02:41.390Z,94947.09
2022-07-26T16:05:11.005Z,94949.75
2022-07-26T16:07:41.470Z,94944.84
2022-07-26T16:10:12.720Z,94946.38
2022-07-26T16:12:41.270Z,94942.81
2022-07-26T16:15:11.037Z,94943.97
2022-07-26T16:17:39.251Z,94936.56
2022-07-26T16:20:08.497Z,94946.88
2022-07-26T16:22:40.821Z,94948.25
2022-07-26T16:25:13.579Z,94949.06
2022-07-26T16:27:43.168Z,94945.34
2022-07-26T16:30:12.885Z,94938.09
2022-07-26T16:32:41.247Z,94935.09
2022-07-26T16:35:10.462Z,94935.16
2022-07-26T16:37:38.565Z,94934.56
2022-07-26T16:40:08.470Z,94933.72
2022-07-26T16:42:37.884Z,94940.31
2022-07-26T16:45:06.560Z,94932.94
2022-07-26T16:47:34.592Z,94930.28
2022-07-26T16:50:02.761Z,94930.59
2022-07-26T16:52:30.858Z,94933.50
2022-07-26T16:55:00.135Z,94932.13
2022-07-26T16:57:28.246Z,94929.53
2022-07-26T16:59:57.887Z,94932.41
2022-07-26T17:02:25.901Z,94928.56
2022-07-26T17:04:55.891Z,94940.06
2022-07-26T17:07:25.869Z,94935.56
2022-07-26T17:09:54.666Z,94934.72
2022-07-26T17:12:22.896Z,94941.19
2022-07-26T17:14:51.575Z,94930.91
2022-07-26T17:17:21.156Z,94930.72
2022-07-26T17:19:49.402Z,94938.31
2022-07-26T17:22:18.046Z,94938.03
2022-07-26T17:24:46.186Z,94937.88
2022-07-26T17:27:14.223Z,94934.75
2022-07-26T17:29:42.277Z,94942.72
2022-07-26T17:32:10.746Z,94944.44
2022-07-26T17:34:40.493Z,94938.22
2022-07-26T17:37:10.252Z,94947.97
2022-07-26T17:39:52.483Z,94944.50
2022-07-26T17:42:22.398Z,94947.69
2022-07-26T17:44:51.201Z,94948.97
2022-07-26T17:47:28.831Z,94949.34
2022-07-26T17:50:19.539Z,94952.63
2022-07-26T17:52:50.361Z,94949.00
2022-07-26T17:55:19.974Z,94953.69
2022-07-26T17:57:49.533Z,94956.03
2022-07-26T18:00:19.394Z,94958.03
2022-07-26T18:02:47.734Z,94953.94
2022-07-26T18:05:18.392Z,94960.50
2022-07-26T18:07:46.597Z,94948.06
2022-07-26T18:10:14.823Z,94957.94
2022-07-26T18:12:43.204Z,94950.69
2022-07-26T18:15:11.887Z,94959.22
2022-07-26T18:17:40.109Z,94949.63
2022-07-26T18:20:09.287Z,94952.09
2022-07-26T18:22:39.046Z,94957.03
2022-07-26T18:25:08.462Z,94954.16
2022-07-26T18:27:37.027Z,94955.41
2022-07-26T18:30:06.963Z,94951.72
2022-07-26T18:32:35.279Z,94955.28
2022-07-26T18:35:03.462Z,94954.78
2022-07-26T18:37:31.787Z,94955.41
2022-07-26T18:40:01.344Z,94953.38
2022-07-26T18:42:29.322Z,94951.13
2022-07-26T18:44:57.391Z,94960.78
2022-07-26T18:47:25.815Z,94951.19
2022-07-26T18:49:53.878Z,94956.78
2022-07-26T18:52:32.063Z,94954.31
2022-07-26T18:55:07.162Z,94963.38
2022-07-26T18:57:36.474Z,94958.00
2022-07-26T19:00:06.368Z,94957.94
2022-07-26T19:02:34.342Z,94970.25
2022-07-26T19:05:02.594Z,94964.22
2022-07-26T19:07:31.888Z,94970.91
2022-07-26T19:09:59.884Z,94968.63
2022-07-26T19:12:29.509Z,94970.53
2022-07-26T19:15:00.023Z,94971.75
2022-07-26T19:17:30.028Z,94963.66
2022-07-26T19:19:58.592Z,94970.81
2022-07-26T19:22:29.200Z,94975.72
2022-07-26T19:24:57.573Z,94980.28
2022-07-26T19:27:27.965Z,94978.72
2022-07-26T19:29:58.168Z,94971.41
2022-07-26T19:32:30.468Z,94968.72
2022-07-26T19:35:01.633Z,94972.72
2022-07-26T19:37:29.965Z,94976.09
2022-07-26T19:40:00.409Z,94975.25
2022-07-26T19:42:30.941Z,94984.47
2022-07-26T19:45:01.073Z,94988.25
2022-07-26T19:47:30.045Z,94983.03
2022-07-26T19:49:58.856Z,94990.84
2022-07-26T19:52:26.938Z,94994.03
2022-07-26T19:54:55.089Z,95005.53
2022-07-26T19:57:23.285Z,94998.97
2022-07-26T19:59:51.468Z,95007.31
2022-07-26T20:02:21.058Z,95002.94
2022-07-26T20:04:50.987Z,94998.56
2022-07-26T20:07:19.770Z,95003.94
2022-07-26T20:09:48.037Z,95002.31
2022-07-26T20:12:16.532Z,95012.78
2022-07-26T20:14:45.371Z,95023.47
2022-07-26T20:17:13.777Z,95023.28
2022-07-26T20:19:43.233Z,95024.09
2022-07-26T20:22:11.754Z,95027.31
2022-07-26T20:24:40.044Z,95024.06
2022-07-26T20:27:08.877Z,95023.97
2022-07-26T20:29:37.113Z,95025.91
2022-07-26T20:32:05.598Z,95032.06
2022-07-26T20:34:33.851Z,95031.41
2022-07-26T20:37:03.225Z,95040.09
2022-07-26T20:39:31.247Z,95037.88
2022-07-26T20:41:59.222Z,95032.25
2022-07-26T20:44:29.630Z,95038.53
2022-07-26T20:46:57.738Z,95041.53
2022-07-26T20:49:25.810Z,95031.59
2022-07-26T20:51:54.168Z,95036.03
2022-07-26T20:54:23.598Z,95023.75
2022-07-26T20:56:51.550Z,95022.19
2022-07-26T20:59:19.628Z,95031.97
2022-07-26T21:01:47.735Z,95028.81
2022-07-26T21:04:15.874Z,95031.03
2022-07-26T21:06:43.920Z,95033.22
2022-07-26T21:09:12.314Z,95028.56
2022-07-26T21:11:42.127Z,95025.72
2022-07-26T21:14:10.094Z,95030.88
2022-07-26T21:16:38.563Z,95029.16
2022-07-26T21:19:06.737Z,95033.09
2022-07-26T21:21:37.066Z,95035.00
2022-07-26T21:24:06.406Z,95038.25
2022-07-26T21:26:34.814Z,95025.03
2022-07-26T21:29:05.843Z,95033.38
2022-07-26T21:31:33.804Z,95033.38
2022-07-26T21:34:01.905Z,95033.38
2022-07-26T21:36:30.165Z,95023.63
2022-07-26T21:38:59.176Z,95028.50
2022-07-26T21:41:27.164Z,95026.91
2022-07-26T21:43:55.178Z,95025.00
2022-07-26T21:46:24.565Z,95027.03
2022-07-26T21:48:53.014Z,95028.13
2022-07-26T21:51:21.059Z,95019.66
2022-07-26T21:53:49.337Z,95030.13
2022-07-26T21:56:17.320Z,95026.72
2022-07-26T21:58:45.453Z,95023.28
2022-07-26T22:01:15.639Z,95024.22
2022-07-26T22:03:45.059Z,95028.78
2022-07-26T22:06:13.693Z,95029.88
2022-07-26T22:08:41.695Z,95031.69
2022-07-26T22:11:09.893Z,95020.38
2022-07-26T22:13:38.238Z,95021.66
2022-07-26T22:16:07.231Z,95014.84
2022-07-26T22:18:35.306Z,95026.91
2022-07-26T22:21:05.402Z,95025.94
2022-07-26T22:23:33.861Z,95026.91
2022-07-26T22:26:04.007Z,95019.28
2022-07-26T22:28:33.993Z,95031.53
2022-07-26T22:31:02.616Z,95028.00
2022-07-26T22:33:30.610Z,95033.13
2022-07-26T22:35:58.602Z,95026.78
2022-07-26T22:38:27.933Z,95024.72
2022-07-26T22:40:55.937Z,95020.63
2022-07-26T22:43:23.895Z,95022.19
2022-07-26T22:45:51.967Z,95023.13
2022-07-26T22:48:20.039Z,95020.38
2022-07-26T22:50:48.009Z,95017.34
2022-07-26T22:53:16.392Z,95027.38
2022-07-26T22:55:45.726Z,95023.13
2022-07-26T22:58:13.960Z,95025.59
2022-07-26T23:00:42.279Z,95025.81
2022-07-26T23:03:17.634Z,95024.03
2022-07-26T23:05:49.468Z,95022.94
2022-07-26T23:11:08.072Z,95025.78
2022-07-26T23:13:36.065Z,95022.19
2022-07-26T23:16:04.389Z,95017.63
2022-07-26T23:18:34.295Z,95019.03
2022-07-26T23:21:02.326Z,95023.41
2022-07-26T23:23:32.014Z,95019.66
2022-07-26T23:26:00.728Z,95031.03
2022-07-26T23:28:36.872Z,95025.22
2022-07-26T23:31:09.275Z,95024.50
2022-07-26T23:33:53.044Z,95026.28
2022-07-26T23:36:25.711Z,95026.09
2022-07-26T23:38:54.740Z,95027.47
2022-07-26T23:41:23.225Z,95043.63
2022-07-26T23:43:53.291Z,95039.88
2022-07-26T23:46:21.407Z,95035.50
2022-07-26T23:48:49.544Z,95033.94
2022-07-26T23:51:19.626Z,95032.22
2022-07-26T23:53:47.798Z,95031.16
2022-07-26T23:56:16.648Z,95027.19
2022-07-26T23:58:45.817Z,95033.81
